Carver Park, New York
Current Conditions -  °F | °C
As of 8:56 AM on Thursday 23 Oct 2014 (Local Time) from KHWV Reporting Station
Overcast Overcast  
Wind Chill: 52°   Ceiling: 1600
Heat Index: 52°   Visibility: 10mi
Dew Point: 48°   Wind: 12mph
Humidity: 86%   Direction: 360°N
Pressure: 29.63"   Gusts: NA
Location:  40.835°N, 72.922°W
Report Text: KHWV 231256Z AUTO 36010KT 10SM OVC016 11/09 A2963 RMK AO2 RAB04E22 SLP035 P0000 T01110089 TSNO $
Loading
Personal Weather Stations






























Interactive Weather Map
Tropical Storm Tracking
New forecast layout! Learn more

10-Day Weather Forecast

Advertisements
Track Severe Weather on mobile